Time;durP1;ratioP1;P1;durP2;ratioP2;P2;SDS_P1;SDS_P2;PMS_P1;PMS_P2;Temp;Humidity;BMP_temperature;BMP_pressure;BME280_temperature;BME280_humidity;BME280_pressure;Samples;Min_cycle;Max_cycle;Signal;HPM_P1;HPM_P2
2024/01/17 00:01:31;;;;;;;;;;;;;;;;;;53217;1251;1045351;-81
2024/01/17 00:03:58;;;;;;;;;;;;;;;;;;53230;1251;1005573;-81
2024/01/17 00:06:25;;;;;;;;;;;;;;;;;;53179;1251;1060947;-81
2024/01/17 00:08:52;;;;;;;;;;;;;;;;;;53217;1251;1005393;-81
2024/01/17 00:11:19;;;;;;;;;;;;;;;;;;53141;1250;1057615;-81
2024/01/17 00:13:45;;;;;;;;;;;;;;;;;;53289;1254;1004781;-80
2024/01/17 00:16:12;;;;;;;;;;;;;;;;;;53185;1251;1059302;-81
2024/01/17 00:18:38;;;;;;;;;;;;;;;;;;53204;1251;1004992;-81
2024/01/17 00:21:05;;;;;;;;;;;;;;;;;;53185;1252;1038099;-81
2024/01/17 00:23:31;;;;;;;;;;;;;;;;;;53227;1254;1004961;-81
2024/01/17 00:25:58;;;;;;;;;;;;;;;;;;53169;1251;1045890;-81
2024/01/17 00:28:24;;;;;;;;;;;;;;;;;;53187;1251;1006480;-80
2024/01/17 00:30:51;;;;;;;;;;;;;;;;;;53211;1251;1061147;-81
2024/01/17 00:33:18;;;;;;;;;;;;;;;;;;53235;1251;1005489;-81
2024/01/17 00:35:44;;;;;;;;;;;;;;;;;;53228;1251;1056591;-81
2024/01/17 00:38:11;;;;;;;;;;;;;;;;;;53186;1251;1005666;-81
2024/01/17 00:40:37;;;;;;;;;;;;;;;;;;53153;1253;1057926;-81
2024/01/17 00:43:04;;;;;;;;;;;;;;;;;;53228;1253;1003868;-81
2024/01/17 00:45:30;;;;;;;;;;;;;;;;;;53192;1255;1038127;-81
2024/01/17 00:47:57;;;;;;;;;;;;;;;;;;53198;1254;1005954;-81
2024/01/17 00:50:23;;;;;;;;;;;;;;;;;;53216;1251;1046198;-81
2024/01/17 00:52:50;;;;;;;;;;;;;;;;;;53268;1251;1003756;-81
2024/01/17 00:55:16;;;;;;;;;;;;;;;;;;53211;1251;1061461;-81
2024/01/17 00:57:43;;;;;;;;;;;;;;;;;;53209;1253;1004738;-81
2024/01/17 01:00:09;;;;;;;;;;;;;;;;;;53199;1254;1057576;-81
2024/01/17 01:02:36;;;;;;;;;;;;;;;;;;53288;1253;1005299;-81
2024/01/17 01:05:02;;;;;;;;;;;;;;;;;;53157;1251;1057813;-81
2024/01/17 01:07:29;;;;;;;;;;;;;;;;;;53172;1252;1005113;-82
2024/01/17 01:09:55;;;;;;;;;;;;;;;;;;53248;1254;1038555;-81
2024/01/17 01:12:22;;;;;;;;;;;;;;;;;;53182;1252;1005558;-81
2024/01/17 01:14:49;;;;;;;;;;;;;;;;;;53191;1253;1045656;-80
2024/01/17 01:17:15;;;;;;;;;;;;;;;;;;53440;1252;1005554;-81
2024/01/17 01:19:42;;;;;;;;;;;;;;;;;;54192;1251;1060348;-81
2024/01/17 01:22:08;;;;;;;;;;;;;;;;;;53232;1253;1003664;-80
2024/01/17 01:24:35;;;;;;;;;;;;;;;;;;53181;1251;1056143;-81
2024/01/17 01:27:01;;;;;;;;;;;;;;;;;;53210;1251;1005532;-81
2024/01/17 01:29:28;;;;;;;;;;;;;;;;;;53305;1251;1058972;-81
2024/01/17 01:31:54;;;;;;;;;;;;;;;;;;53279;1253;1005509;-81
2024/01/17 01:34:21;;;;;;;;;;;;;;;;;;53172;1251;1038924;-81
2024/01/17 01:36:47;;;;;;;;;;;;;;;;;;53211;1253;1005414;-81
2024/01/17 01:39:14;;;;;;;;;;;;;;;;;;53277;1251;1046516;-80
2024/01/17 01:41:41;;;;;;;;;;;;;;;;;;53159;1254;1005371;-81
2024/01/17 01:44:08;;;;;;;;;;;;;;;;;;53206;1252;1060644;-80
2024/01/17 01:46:35;;;;;;;;;;;;;;;;;;53165;1251;1005867;-80
2024/01/17 01:49:01;;;;;;;;;;;;;;;;;;53202;1251;1056424;-80
2024/01/17 01:51:28;;;;;;;;;;;;;;;;;;53236;1252;1005838;-80
2024/01/17 01:53:54;;;;;;;;;;;;;;;;;;53195;1253;1058136;-80
2024/01/17 01:56:21;;;;;;;;;;;;;;;;;;53147;1251;1005746;-80
2024/01/17 01:58:47;;;;;;;;;;;;;;;;;;53188;1251;1038138;-80
2024/01/17 02:01:14;;;;;;;;;;;;;;;;;;53325;1251;1005602;-80
2024/01/17 02:03:40;;;;;;;;;;;;;;;;;;53231;1251;1045815;-80
2024/01/17 02:06:07;;;;;;;;;;;;;;;;;;53140;1251;1005764;-80
2024/01/17 02:08:33;;;;;;;;;;;;;;;;;;53299;1252;1063293;-80
2024/01/17 02:11:00;;;;;;;;;;;;;;;;;;53220;1253;1005615;-80
2024/01/17 02:13:26;;;;;;;;;;;;;;;;;;53207;1253;1056852;-80
2024/01/17 02:15:53;;;;;;;;;;;;;;;;;;53130;1253;1003512;-80
2024/01/17 02:18:19;;;;;;;;;;;;;;;;;;53314;1252;1057728;-80
2024/01/17 02:20:46;;;;;;;;;;;;;;;;;;53330;1252;1005293;-80
2024/01/17 02:23:12;;;;;;;;;;;;;;;;;;53574;1254;1038133;-79
2024/01/17 02:25:39;;;;;;;;;;;;;;;;;;53545;1251;1003686;-80
2024/01/17 02:28:05;;;;;;;;;;;;;;;;;;53696;1251;1045888;-80
2024/01/17 02:30:32;;;;;;;;;;;;;;;;;;53537;1252;1004672;-80
2024/01/17 02:32:59;;;;;;;;;;;;;;;;;;53348;1252;1060407;-80
2024/01/17 02:35:25;;;;;;;;;;;;;;;;;;53254;1251;1004925;-80
2024/01/17 02:37:51;;;;;;;;;;;;;;;;;;53578;1253;1056368;-79
2024/01/17 02:40:18;;;;;;;;;;;;;;;;;;53710;1251;1005289;-80
2024/01/17 02:42:44;;;;;;;;;;;;;;;;;;53259;1253;1058368;-80
2024/01/17 02:45:11;;;;;;;;;;;;;;;;;;53154;1254;1005821;-81
2024/01/17 02:47:37;;;;;;;;;;;;;;;;;;53254;1251;1038293;-80
2024/01/17 02:50:04;;;;;;;;;;;;;;;;;;53260;1253;1004832;-80
2024/01/17 02:52:30;;;;;;;;;;;;;;;;;;53179;1252;1046194;-80
2024/01/17 02:54:57;;;;;;;;;;;;;;;;;;53193;1251;1005919;-81
2024/01/17 02:57:24;;;;;;;;;;;;;;;;;;53194;1251;1060725;-80
2024/01/17 02:59:50;;;;;;;;;;;;;;;;;;53231;1251;1005732;-80
2024/01/17 03:02:17;;;;;;;;;;;;;;;;;;53185;1253;1057487;-80
2024/01/17 03:04:43;;;;;;;;;;;;;;;;;;53218;1250;1004763;-80
2024/01/17 03:07:10;;;;;;;;;;;;;;;;;;53246;1251;1058220;-80
2024/01/17 03:09:37;;;;;;;;;;;;;;;;;;53226;1251;1005731;-80
2024/01/17 03:12:04;;;;;;;;;;;;;;;;;;53181;1253;1037959;-80
2024/01/17 03:14:31;;;;;;;;;;;;;;;;;;53175;1251;1005676;-80
2024/01/17 03:16:58;;;;;;;;;;;;;;;;;;53224;1251;1045163;-80
2024/01/17 03:19:24;;;;;;;;;;;;;;;;;;53226;1252;1003676;-80
2024/01/17 03:21:51;;;;;;;;;;;;;;;;;;53172;1253;1060264;-81
2024/01/17 03:24:17;;;;;;;;;;;;;;;;;;53210;1251;1003747;-80
2024/01/17 03:26:44;;;;;;;;;;;;;;;;;;53200;1250;1056958;-80
2024/01/17 03:29:10;;;;;;;;;;;;;;;;;;52971;1253;1005531;-80
2024/01/17 03:31:37;;;;;;;;;;;;;;;;;;52934;1253;1058075;-80
2024/01/17 03:34:04;;;;;;;;;;;;;;;;;;52972;1251;1005049;-80
2024/01/17 03:36:30;;;;;;;;;;;;;;;;;;53668;1251;1038521;-80
2024/01/17 03:38:57;;;;;;;;;;;;;;;;;;54209;1252;1003085;-80
2024/01/17 03:41:23;;;;;;;;;;;;;;;;;;54216;1252;1045488;-80
2024/01/17 03:43:50;;;;;;;;;;;;;;;;;;53997;1251;1004171;-80
2024/01/17 03:46:16;;;;;;;;;;;;;;;;;;52956;1253;1060564;-80
2024/01/17 03:48:43;;;;;;;;;;;;;;;;;;52981;1253;1005774;-80
2024/01/17 03:51:09;;;;;;;;;;;;;;;;;;52940;1253;1055978;-80
2024/01/17 03:53:36;;;;;;;;;;;;;;;;;;52996;1251;1004852;-80
2024/01/17 03:56:03;;;;;;;;;;;;;;;;;;52905;1251;1058141;-80
2024/01/17 03:58:29;;;;;;;;;;;;;;;;;;52957;1251;1005087;-80
2024/01/17 04:00:56;;;;;;;;;;;;;;;;;;52968;1253;1038414;-80
2024/01/17 04:03:22;;;;;;;;;;;;;;;;;;52969;1254;1005072;-80
2024/01/17 04:05:49;;;;;;;;;;;;;;;;;;53149;1251;1045808;-80
2024/01/17 04:08:15;;;;;;;;;;;;;;;;;;53007;1253;1004975;-80
2024/01/17 04:10:42;;;;;;;;;;;;;;;;;;52957;1252;1060451;-80
2024/01/17 04:13:08;;;;;;;;;;;;;;;;;;53012;1251;1005374;-80
2024/01/17 04:15:35;;;;;;;;;;;;;;;;;;52928;1254;1058172;-80
2024/01/17 04:18:01;;;;;;;;;;;;;;;;;;52935;1253;1005496;-80
2024/01/17 04:20:28;;;;;;;;;;;;;;;;;;52965;1255;1058854;-79
2024/01/17 04:22:54;;;;;;;;;;;;;;;;;;52953;1255;1005750;-79
2024/01/17 04:25:21;;;;;;;;;;;;;;;;;;52874;1255;1038483;-79
2024/01/17 04:27:47;;;;;;;;;;;;;;;;;;52969;1255;1005413;-79
2024/01/17 04:30:14;;;;;;;;;;;;;;;;;;54171;1251;1045086;-79
2024/01/17 04:32:44;;;;;;;;;;;;;;;;;;54222;1251;1003736;-79
2024/01/17 04:35:11;;;;;;;;;;;;;;;;;;54210;1251;1059964;-79
2024/01/17 04:37:39;;;;;;;;;;;;;;;;;;54212;1250;1003556;-79
2024/01/17 04:40:06;;;;;;;;;;;;;;;;;;54193;1253;1056697;-79
2024/01/17 04:42:32;;;;;;;;;;;;;;;;;;54175;1253;1003502;-78
2024/01/17 04:44:59;;;;;;;;;;;;;;;;;;53813;1253;1058429;-79
2024/01/17 04:47:25;;;;;;;;;;;;;;;;;;52952;1255;1005639;-79
2024/01/17 04:49:52;;;;;;;;;;;;;;;;;;53042;1251;1038425;-79
2024/01/17 04:52:18;;;;;;;;;;;;;;;;;;52960;1253;1005365;-79
2024/01/17 04:54:45;;;;;;;;;;;;;;;;;;52884;1253;1046757;-79
2024/01/17 04:57:12;;;;;;;;;;;;;;;;;;52962;1253;1004662;-79
2024/01/17 04:59:39;;;;;;;;;;;;;;;;;;52983;1255;1060797;-79
2024/01/17 05:02:05;;;;;;;;;;;;;;;;;;52897;1254;1005466;-79
2024/01/17 05:04:32;;;;;;;;;;;;;;;;;;53006;1256;1057203;-79
2024/01/17 05:06:59;;;;;;;;;;;;;;;;;;52911;1251;1005456;-79
2024/01/17 05:09:26;;;;;;;;;;;;;;;;;;52933;1253;1057745;-78
2024/01/17 05:11:52;;;;;;;;;;;;;;;;;;52929;1253;1005263;-79
2024/01/17 05:14:19;;;;;;;;;;;;;;;;;;52965;1254;1041217;-79
2024/01/17 05:16:45;;;;;;;;;;;;;;;;;;52923;1256;1006382;-78
2024/01/17 05:19:12;;;;;;;;;;;;;;;;;;52979;1251;1046410;-78
2024/01/17 05:21:38;;;;;;;;;;;;;;;;;;52968;1251;1005547;-79
2024/01/17 05:24:05;;;;;;;;;;;;;;;;;;52859;1251;1059656;-78
2024/01/17 05:26:32;;;;;;;;;;;;;;;;;;52973;1252;1005791;-79
2024/01/17 05:28:58;;;;;;;;;;;;;;;;;;52944;1255;1056616;-79
2024/01/17 05:31:25;;;;;;;;;;;;;;;;;;52886;1251;1005697;-78
2024/01/17 05:33:51;;;;;;;;;;;;;;;;;;52933;1254;1057868;-79
2024/01/17 05:36:18;;;;;;;;;;;;;;;;;;52948;1253;1005487;-79
2024/01/17 05:38:45;;;;;;;;;;;;;;;;;;52905;1251;1039099;-79
2024/01/17 05:41:11;;;;;;;;;;;;;;;;;;52910;1256;1005473;-79
2024/01/17 05:43:38;;;;;;;;;;;;;;;;;;52971;1254;1046054;-79
2024/01/17 05:46:04;;;;;;;;;;;;;;;;;;53179;1253;1005356;-79
2024/01/17 05:48:31;;;;;;;;;;;;;;;;;;52924;1251;1060302;-80
2024/01/17 05:50:57;;;;;;;;;;;;;;;;;;52938;1255;1005065;-79
2024/01/17 05:53:24;;;;;;;;;;;;;;;;;;52965;1251;1056930;-79
2024/01/17 05:55:52;;;;;;;;;;;;;;;;;;52991;1250;1005703;-79
2024/01/17 05:58:19;;;;;;;;;;;;;;;;;;52952;1254;1057621;-80
2024/01/17 06:00:46;;;;;;;;;;;;;;;;;;52912;1254;1005281;-78
2024/01/17 06:03:13;;;;;;;;;;;;;;;;;;52956;1251;1038220;-79
2024/01/17 06:05:40;;;;;;;;;;;;;;;;;;52967;1251;1005450;-79
2024/01/17 06:08:07;;;;;;;;;;;;;;;;;;52935;1252;1045476;-79
2024/01/17 06:10:33;;;;;;;;;;;;;;;;;;52879;1251;1005970;-79
2024/01/17 06:13:00;;;;;;;;;;;;;;;;;;52973;1255;1060236;-78
2024/01/17 06:15:26;;;;;;;;;;;;;;;;;;52995;1249;1005448;-79
2024/01/17 06:17:53;;;;;;;;;;;;;;;;;;52953;1254;1057291;-79
2024/01/17 06:20:19;;;;;;;;;;;;;;;;;;53025;1251;1005111;-79
2024/01/17 06:22:46;;;;;;;;;;;;;;;;;;52979;1251;1058411;-79
2024/01/17 06:25:12;;;;;;;;;;;;;;;;;;53022;1254;1006164;-79
2024/01/17 06:27:39;;;;;;;;;;;;;;;;;;52958;1251;1038494;-80
2024/01/17 06:30:05;;;;;;;;;;;;;;;;;;52927;1254;1005404;-79
2024/01/17 06:32:32;;;;;;;;;;;;;;;;;;52978;1251;1045555;-80
2024/01/17 06:34:58;;;;;;;;;;;;;;;;;;52842;1254;1005154;-79
2024/01/17 06:37:25;;;;;;;;;;;;;;;;;;52957;1255;1059829;-79
2024/01/17 06:39:51;;;;;;;;;;;;;;;;;;53008;1251;1005160;-79
2024/01/17 06:42:18;;;;;;;;;;;;;;;;;;52915;1253;1058065;-79
2024/01/17 06:44:45;;;;;;;;;;;;;;;;;;53001;1251;1004987;-79
2024/01/17 06:47:11;;;;;;;;;;;;;;;;;;52925;1255;1058312;-79
2024/01/17 06:49:40;;;;;;;;;;;;;;;;;;53632;1251;1004010;-79
2024/01/17 06:52:07;;;;;;;;;;;;;;;;;;54169;1251;1038773;-79
2024/01/17 06:54:34;;;;;;;;;;;;;;;;;;54149;1255;1003449;-79
2024/01/17 06:57:00;;;;;;;;;;;;;;;;;;53129;1251;1045678;-79
2024/01/17 06:59:27;;;;;;;;;;;;;;;;;;52955;1252;1005468;-79
2024/01/17 07:01:54;;;;;;;;;;;;;;;;;;52956;1251;1060826;-79
2024/01/17 07:04:21;;;;;;;;;;;;;;;;;;52937;1251;1005134;-79
2024/01/17 07:06:48;;;;;;;;;;;;;;;;;;53008;1254;1057859;-79
2024/01/17 07:09:14;;;;;;;;;;;;;;;;;;52989;1251;1005534;-79
2024/01/17 07:11:41;;;;;;;;;;;;;;;;;;53069;1251;1057936;-79
2024/01/17 07:14:08;;;;;;;;;;;;;;;;;;52962;1251;1005601;-79
2024/01/17 07:16:34;;;;;;;;;;;;;;;;;;53131;1251;1038401;-79
2024/01/17 07:19:01;;;;;;;;;;;;;;;;;;52972;1251;1005600;-79
2024/01/17 07:21:28;;;;;;;;;;;;;;;;;;53137;1251;1045932;-79
2024/01/17 07:23:55;;;;;;;;;;;;;;;;;;53082;1254;1005669;-79
2024/01/17 07:26:21;;;;;;;;;;;;;;;;;;53015;1252;1060503;-79
2024/01/17 07:28:48;;;;;;;;;;;;;;;;;;53046;1251;1005147;-79
2024/01/17 07:31:14;;;;;;;;;;;;;;;;;;53098;1254;1056488;-79
2024/01/17 07:33:41;;;;;;;;;;;;;;;;;;53410;1251;1005700;-79
2024/01/17 07:36:07;;;;;;;;;;;;;;;;;;54142;1251;1058182;-79
2024/01/17 07:38:34;;;;;;;;;;;;;;;;;;54153;1251;1003257;-79
2024/01/17 07:41:01;;;;;;;;;;;;;;;;;;54168;1254;1039436;-79
2024/01/17 07:43:27;;;;;;;;;;;;;;;;;;54199;1251;1003297;-79
2024/01/17 07:45:54;;;;;;;;;;;;;;;;;;54188;1251;1046430;-79
2024/01/17 07:48:20;;;;;;;;;;;;;;;;;;54138;1251;1003384;-79
2024/01/17 07:50:47;;;;;;;;;;;;;;;;;;54137;1251;1059659;-79
2024/01/17 07:53:13;;;;;;;;;;;;;;;;;;54181;1253;1003293;-79
2024/01/17 07:55:40;;;;;;;;;;;;;;;;;;54172;1251;1057166;-80
2024/01/17 07:58:07;;;;;;;;;;;;;;;;;;54127;1251;1003236;-80
2024/01/17 08:00:34;;;;;;;;;;;;;;;;;;54125;1251;1057968;-80
2024/01/17 08:03:00;;;;;;;;;;;;;;;;;;54123;1251;1003482;-79
2024/01/17 08:05:27;;;;;;;;;;;;;;;;;;54157;1251;1038897;-79
2024/01/17 08:07:54;;;;;;;;;;;;;;;;;;54169;1253;1003180;-79
2024/01/17 08:10:21;;;;;;;;;;;;;;;;;;54136;1254;1045229;-79
2024/01/17 08:12:47;;;;;;;;;;;;;;;;;;54134;1251;1003329;-79
2024/01/17 08:15:14;;;;;;;;;;;;;;;;;;54142;1251;1059763;-79
2024/01/17 08:17:40;;;;;;;;;;;;;;;;;;54147;1251;1003252;-79
2024/01/17 08:20:07;;;;;;;;;;;;;;;;;;54143;1251;1056873;-79
2024/01/17 08:22:34;;;;;;;;;;;;;;;;;;54113;1251;1003320;-79
2024/01/17 08:25:01;;;;;;;;;;;;;;;;;;54150;1252;1057912;-79
2024/01/17 08:27:27;;;;;;;;;;;;;;;;;;54117;1251;1003454;-79
2024/01/17 08:29:54;;;;;;;;;;;;;;;;;;54179;1251;1039327;-80
2024/01/17 08:32:20;;;;;;;;;;;;;;;;;;54156;1251;1003600;-79
2024/01/17 08:34:47;;;;;;;;;;;;;;;;;;53534;1251;1047687;-79
2024/01/17 08:37:14;;;;;;;;;;;;;;;;;;53061;1251;1005641;-79
2024/01/17 08:39:43;;;;;;;;;;;;;;;;;;53069;1251;1060312;-79
2024/01/17 08:42:10;;;;;;;;;;;;;;;;;;53125;1251;1005630;-79
2024/01/17 08:44:36;;;;;;;;;;;;;;;;;;53050;1251;1005097;-79
2024/01/17 08:47:03;;;;;;;;;;;;;;;;;;53134;1251;1056433;-79
2024/01/17 08:49:29;;;;;;;;;;;;;;;;;;53096;1253;1004807;-79
2024/01/17 08:51:56;;;;;;;;;;;;;;;;;;53152;1251;1057381;-80
2024/01/17 08:54:22;;;;;;;;;;;;;;;;;;53085;1254;1006504;-79
2024/01/17 08:56:49;;;;;;;;;;;;;;;;;;53155;1251;1038071;-79
2024/01/17 08:59:15;;;;;;;;;;;;;;;;;;53153;1254;1004752;-79
2024/01/17 09:01:42;;;;;;;;;;;;;;;;;;53226;1251;1046378;-80
2024/01/17 09:04:09;;;;;;;;;;;;;;;;;;53153;1251;1005570;-80
2024/01/17 09:06:35;;;;;;;;;;;;;;;;;;53063;1251;1060497;-80
2024/01/17 09:09:03;;;;;;;;;;;;;;;;;;53020;1254;1004753;-79
2024/01/17 09:11:31;;;;;;;;;;;;;;;;;;53202;1250;1057561;-79
2024/01/17 09:13:58;;;;;;;;;;;;;;;;;;53071;1251;1004516;-79
2024/01/17 09:16:24;;;;;;;;;;;;;;;;;;53139;1251;1005628;-80
2024/01/17 09:18:51;;;;;;;;;;;;;;;;;;53324;1251;1057756;-79
2024/01/17 09:21:17;;;;;;;;;;;;;;;;;;53336;1251;1005785;-79
2024/01/17 09:23:44;;;;;;;;;;;;;;;;;;54160;1251;1038695;-80
2024/01/17 09:26:10;;;;;;;;;;;;;;;;;;54201;1251;1003609;-79
2024/01/17 09:28:37;;;;;;;;;;;;;;;;;;54140;1250;1045909;-80
2024/01/17 09:31:03;;;;;;;;;;;;;;;;;;54085;1251;1003501;-80
2024/01/17 09:33:30;;;;;;;;;;;;;;;;;;54126;1251;1059528;-80
2024/01/17 09:35:56;;;;;;;;;;;;;;;;;;54094;1251;1003296;-79
2024/01/17 09:38:23;;;;;;;;;;;;;;;;;;54121;1251;1057770;-80
2024/01/17 09:40:49;;;;;;;;;;;;;;;;;;54083;1251;1003531;-79
2024/01/17 09:43:16;;;;;;;;;;;;;;;;;;54146;1251;1057481;-80
2024/01/17 09:45:42;;;;;;;;;;;;;;;;;;54106;1250;1003673;-80
2024/01/17 09:48:09;;;;;;;;;;;;;;;;;;54106;1251;1037832;-79
2024/01/17 09:50:35;;;;;;;;;;;;;;;;;;54112;1250;1003458;-80
2024/01/17 09:53:02;;;;;;;;;;;;;;;;;;54146;1251;1045586;-80
2024/01/17 09:55:28;;;;;;;;;;;;;;;;;;54136;1251;1003440;-80
2024/01/17 09:57:56;;;;;;;;;;;;;;;;;;54161;1250;1060218;-80
2024/01/17 10:00:22;;;;;;;;;;;;;;;;;;54134;1251;1003644;-80
2024/01/17 10:02:49;;;;;;;;;;;;;;;;;;54113;1251;1056306;-80
2024/01/17 10:05:16;;;;;;;;;;;;;;;;;;54179;1251;1003338;-80
2024/01/17 10:07:45;;;;;;;;;;;;;;;;;;54157;1251;1057780;-79
2024/01/17 10:10:11;;;;;;;;;;;;;;;;;;54115;1251;1003603;-80
2024/01/17 10:12:38;;;;;;;;;;;;;;;;;;54116;1250;1003344;-80
2024/01/17 10:15:06;;;;;;;;;;;;;;;;;;54122;1252;1038381;-80
2024/01/17 10:17:33;;;;;;;;;;;;;;;;;;54139;1250;1003228;-80
2024/01/17 10:19:59;;;;;;;;;;;;;;;;;;54108;1250;1003521;-80
2024/01/17 10:22:26;;;;;;;;;;;;;;;;;;54140;1250;1046573;-79
2024/01/17 10:24:52;;;;;;;;;;;;;;;;;;54173;1249;1003521;-80
2024/01/17 10:27:19;;;;;;;;;;;;;;;;;;54149;1250;1059620;-80
2024/01/17 10:29:45;;;;;;;;;;;;;;;;;;54151;1251;1003168;-80
2024/01/17 10:32:12;;;;;;;;;;;;;;;;;;54123;1250;1057231;-80
2024/01/17 10:34:39;;;;;;;;;;;;;;;;;;54124;1250;1003285;-80
2024/01/17 10:37:06;;;;;;;;;;;;;;;;;;54105;1251;1057854;-80
2024/01/17 10:39:32;;;;;;;;;;;;;;;;;;54103;1254;1003310;-80
2024/01/17 10:41:59;;;;;;;;;;;;;;;;;;54056;1250;1038566;-80
2024/01/17 10:44:26;;;;;;;;;;;;;;;;;;54114;1251;1003294;-80
2024/01/17 10:46:53;;;;;;;;;;;;;;;;;;53145;1251;1046142;-80
2024/01/17 10:49:19;;;;;;;;;;;;;;;;;;53095;1251;1003813;-80
2024/01/17 10:51:46;;;;;;;;;;;;;;;;;;54095;1251;1060817;-80
2024/01/17 10:54:12;;;;;;;;;;;;;;;;;;53530;1251;1003760;-80
2024/01/17 10:56:39;;;;;;;;;;;;;;;;;;53073;1251;1058462;-79
2024/01/17 10:59:06;;;;;;;;;;;;;;;;;;53037;1251;1005211;-80
2024/01/17 11:01:32;;;;;;;;;;;;;;;;;;53074;1251;1058609;-80
2024/01/17 11:03:59;;;;;;;;;;;;;;;;;;53067;1251;1003593;-80
2024/01/17 11:06:25;;;;;;;;;;;;;;;;;;53067;1254;1038967;-80
2024/01/17 11:08:52;;;;;;;;;;;;;;;;;;53040;1253;1005415;-80
2024/01/17 11:11:18;;;;;;;;;;;;;;;;;;53103;1251;1045891;-80
2024/01/17 11:13:45;;;;;;;;;;;;;;;;;;53135;1251;1003766;-80
2024/01/17 11:16:11;;;;;;;;;;;;;;;;;;53174;1251;1061196;-80
2024/01/17 11:18:40;;;;;;;;;;;;;;;;;;53048;1251;1005417;-80
2024/01/17 11:21:06;;;;;;;;;;;;;;;;;;53114;1251;1056810;-80
2024/01/17 11:23:33;;;;;;;;;;;;;;;;;;53124;1251;1005401;-79
2024/01/17 11:26:00;;;;;;;;;;;;;;;;;;53354;1251;1057483;-78
2024/01/17 11:28:26;;;;;;;;;;;;;;;;;;53029;1251;1003798;-79
2024/01/17 11:30:53;;;;;;;;;;;;;;;;;;53269;1251;1038013;-79
2024/01/17 11:33:19;;;;;;;;;;;;;;;;;;53134;1251;1004523;-79
2024/01/17 11:35:46;;;;;;;;;;;;;;;;;;53138;1251;1045896;-79
2024/01/17 11:38:13;;;;;;;;;;;;;;;;;;53037;1254;1005387;-79
2024/01/17 11:40:40;;;;;;;;;;;;;;;;;;53057;1251;1060998;-80
2024/01/17 11:43:07;;;;;;;;;;;;;;;;;;53392;1251;1004764;-79
2024/01/17 11:45:34;;;;;;;;;;;;;;;;;;53090;1251;1058205;-79
2024/01/17 11:48:00;;;;;;;;;;;;;;;;;;53037;1251;1004901;-80
2024/01/17 11:50:27;;;;;;;;;;;;;;;;;;53060;1251;1058491;-79
2024/01/17 11:52:54;;;;;;;;;;;;;;;;;;53099;1251;1005537;-79
2024/01/17 11:55:20;;;;;;;;;;;;;;;;;;53106;1253;1039611;-79
2024/01/17 11:57:47;;;;;;;;;;;;;;;;;;52942;1251;1006029;-80
2024/01/17 12:00:14;;;;;;;;;;;;;;;;;;52982;1251;1045223;-79
2024/01/17 12:02:41;;;;;;;;;;;;;;;;;;53003;1251;1005477;-79
2024/01/17 12:05:08;;;;;;;;;;;;;;;;;;53108;1251;1063095;-79
2024/01/17 12:07:34;;;;;;;;;;;;;;;;;;53164;1251;1004977;-79
2024/01/17 12:10:01;;;;;;;;;;;;;;;;;;53094;1251;1057003;-79
2024/01/17 12:12:27;;;;;;;;;;;;;;;;;;53640;1251;1005371;-80
2024/01/17 12:14:54;;;;;;;;;;;;;;;;;;53216;1251;1057804;-79
2024/01/17 12:17:20;;;;;;;;;;;;;;;;;;53195;1251;1005477;-80
2024/01/17 12:19:47;;;;;;;;;;;;;;;;;;53347;1253;1039532;-79
2024/01/17 12:22:13;;;;;;;;;;;;;;;;;;53180;1255;1005352;-80
2024/01/17 12:24:40;;;;;;;;;;;;;;;;;;53267;1253;1045808;-79
2024/01/17 12:27:06;;;;;;;;;;;;;;;;;;53307;1251;1005430;-80
2024/01/17 12:29:33;;;;;;;;;;;;;;;;;;53207;1251;1059963;-79
2024/01/17 12:32:00;;;;;;;;;;;;;;;;;;53106;1251;1005264;-80
2024/01/17 12:34:26;;;;;;;;;;;;;;;;;;53084;1254;1056955;-80
2024/01/17 12:36:53;;;;;;;;;;;;;;;;;;52987;1251;1004956;-81
2024/01/17 12:39:20;;;;;;;;;;;;;;;;;;53033;1251;1057704;-79
2024/01/17 12:41:47;;;;;;;;;;;;;;;;;;53064;1253;1003620;-80
2024/01/17 12:44:14;;;;;;;;;;;;;;;;;;52983;1251;1039285;-79
2024/01/17 12:46:40;;;;;;;;;;;;;;;;;;53036;1253;1005576;-79
2024/01/17 12:49:07;;;;;;;;;;;;;;;;;;53069;1251;1045595;-78
2024/01/17 12:51:34;;;;;;;;;;;;;;;;;;53138;1251;1004851;-79
2024/01/17 12:54:04;;;;;;;;;;;;;;;;;;53080;1251;1059778;-78
2024/01/17 12:56:30;;;;;;;;;;;;;;;;;;53164;1251;1005061;-79
2024/01/17 12:58:57;;;;;;;;;;;;;;;;;;53128;1253;1005677;-78
2024/01/17 13:01:24;;;;;;;;;;;;;;;;;;53122;1253;1056613;-79
2024/01/17 13:03:51;;;;;;;;;;;;;;;;;;53273;1251;1005527;-80
2024/01/17 13:06:17;;;;;;;;;;;;;;;;;;53006;1251;1057166;-79
2024/01/17 13:08:44;;;;;;;;;;;;;;;;;;52946;1253;1005440;-81
2024/01/17 13:11:10;;;;;;;;;;;;;;;;;;52961;1251;1038045;-79
2024/01/17 13:13:38;;;;;;;;;;;;;;;;;;52965;1251;1005462;-80
2024/01/17 13:16:05;;;;;;;;;;;;;;;;;;53028;1251;1048566;-80
2024/01/17 13:18:32;;;;;;;;;;;;;;;;;;53050;1251;1005602;-80
2024/01/17 13:20:59;;;;;;;;;;;;;;;;;;53068;1253;1060993;-80
2024/01/17 13:23:25;;;;;;;;;;;;;;;;;;53002;1251;1003930;-80
2024/01/17 13:25:52;;;;;;;;;;;;;;;;;;53107;1251;1057523;-80
2024/01/17 13:28:18;;;;;;;;;;;;;;;;;;53266;1251;1004915;-79
2024/01/17 13:30:45;;;;;;;;;;;;;;;;;;53102;1251;1057638;-79
2024/01/17 13:33:14;;;;;;;;;;;;;;;;;;53030;1253;1004719;-79
2024/01/17 13:35:43;;;;;;;;;;;;;;;;;;53031;1253;1038715;-80
2024/01/17 13:38:09;;;;;;;;;;;;;;;;;;53089;1253;1005419;-81
2024/01/17 13:40:39;;;;;;;;;;;;;;;;;;53072;1251;1005133;-80
2024/01/17 13:43:06;;;;;;;;;;;;;;;;;;53004;1250;1046086;-79
2024/01/17 13:45:33;;;;;;;;;;;;;;;;;;53028;1251;1005393;-80
2024/01/17 13:47:59;;;;;;;;;;;;;;;;;;53005;1254;1059842;-81
2024/01/17 13:50:27;;;;;;;;;;;;;;;;;;53066;1251;1005368;-80
2024/01/17 13:52:55;;;;;;;;;;;;;;;;;;53017;1251;1056497;-80
2024/01/17 13:55:22;;;;;;;;;;;;;;;;;;53072;1251;1005327;-79
2024/01/17 13:57:49;;;;;;;;;;;;;;;;;;53036;1253;1005148;-80
2024/01/17 14:00:16;;;;;;;;;;;;;;;;;;53252;1251;1058064;-79
2024/01/17 14:02:42;;;;;;;;;;;;;;;;;;53047;1251;1005733;-80
2024/01/17 14:05:10;;;;;;;;;;;;;;;;;;53091;1253;1038583;-80
2024/01/17 14:07:37;;;;;;;;;;;;;;;;;;53028;1251;1005408;-80
2024/01/17 14:10:04;;;;;;;;;;;;;;;;;;53085;1251;1045797;-80
2024/01/17 14:12:31;;;;;;;;;;;;;;;;;;53072;1251;1004767;-80
2024/01/17 14:14:59;;;;;;;;;;;;;;;;;;53094;1252;1059493;-80
2024/01/17 14:17:26;;;;;;;;;;;;;;;;;;53123;1251;1005212;-80
2024/01/17 14:19:54;;;;;;;;;;;;;;;;;;53054;1251;1057292;-79
2024/01/17 14:22:22;;;;;;;;;;;;;;;;;;53123;1253;1004780;-80
2024/01/17 14:24:48;;;;;;;;;;;;;;;;;;53126;1251;1003824;-81
2024/01/17 14:27:15;;;;;;;;;;;;;;;;;;53139;1252;1058503;-80
2024/01/17 14:29:44;;;;;;;;;;;;;;;;;;53235;1252;1005285;-79
2024/01/17 14:32:31;;;;;;;;;;;;;;;;;;53117;1251;1038349;-80
2024/01/17 14:34:57;;;;;;;;;;;;;;;;;;53063;1252;1005392;-80
2024/01/17 14:37:24;;;;;;;;;;;;;;;;;;52935;1252;1047287;-80
2024/01/17 14:39:50;;;;;;;;;;;;;;;;;;53127;1251;1005551;-80
2024/01/17 14:42:22;;;;;;;;;;;;;;;;;;53836;1251;1060141;-79
2024/01/17 14:44:49;;;;;;;;;;;;;;;;;;52972;1254;1061007;-80
2024/01/17 14:47:16;;;;;;;;;;;;;;;;;;53005;1253;1005003;-80
2024/01/17 14:49:42;;;;;;;;;;;;;;;;;;52945;1252;1058998;-80
2024/01/17 14:52:09;;;;;;;;;;;;;;;;;;53066;1251;1005468;-79
2024/01/17 14:54:35;;;;;;;;;;;;;;;;;;52970;1255;1058333;-80
2024/01/17 14:57:02;;;;;;;;;;;;;;;;;;53022;1255;1004861;-80
2024/01/17 14:59:29;;;;;;;;;;;;;;;;;;52889;1252;1039255;-79
2024/01/17 15:01:55;;;;;;;;;;;;;;;;;;53118;1254;1004773;-80
2024/01/17 15:04:22;;;;;;;;;;;;;;;;;;53014;1252;1045675;-79
2024/01/17 15:06:48;;;;;;;;;;;;;;;;;;52904;1251;1003725;-80
2024/01/17 15:09:18;;;;;;;;;;;;;;;;;;52973;1253;1060238;-80
2024/01/17 15:11:45;;;;;;;;;;;;;;;;;;53051;1252;1004869;-79
2024/01/17 15:14:12;;;;;;;;;;;;;;;;;;53033;1255;1005283;-80
2024/01/17 15:16:39;;;;;;;;;;;;;;;;;;53002;1252;1057213;-80
2024/01/17 15:19:06;;;;;;;;;;;;;;;;;;53062;1253;1004630;-80
2024/01/17 15:21:32;;;;;;;;;;;;;;;;;;53234;1255;1058086;-79
2024/01/17 15:23:59;;;;;;;;;;;;;;;;;;53044;1251;1005545;-79
2024/01/17 15:26:25;;;;;;;;;;;;;;;;;;53071;1251;1038038;-80
2024/01/17 15:28:52;;;;;;;;;;;;;;;;;;53010;1251;1005353;-80
2024/01/17 15:31:18;;;;;;;;;;;;;;;;;;52962;1253;1046346;-79
2024/01/17 15:33:45;;;;;;;;;;;;;;;;;;53032;1251;1005113;-79
2024/01/17 15:36:11;;;;;;;;;;;;;;;;;;52953;1251;1060772;-81
2024/01/17 15:38:43;;;;;;;;;;;;;;;;;;52929;1251;1004926;-80
2024/01/17 15:41:10;;;;;;;;;;;;;;;;;;52926;1251;1056605;-80
2024/01/17 15:43:37;;;;;;;;;;;;;;;;;;52920;1251;1005328;-80
2024/01/17 15:46:04;;;;;;;;;;;;;;;;;;52851;1251;1058301;-80
2024/01/17 15:48:30;;;;;;;;;;;;;;;;;;52931;1254;1005480;-81
2024/01/17 15:50:57;;;;;;;;;;;;;;;;;;52899;1252;1038697;-80
2024/01/17 15:53:24;;;;;;;;;;;;;;;;;;53164;1251;1004716;-80
2024/01/17 15:55:50;;;;;;;;;;;;;;;;;;53333;1251;1045324;-80
2024/01/17 15:58:17;;;;;;;;;;;;;;;;;;53193;1251;1005279;-80
2024/01/17 16:00:44;;;;;;;;;;;;;;;;;;53333;1251;1060658;-80
2024/01/17 16:03:11;;;;;;;;;;;;;;;;;;52978;1251;1005592;-80
2024/01/17 16:05:39;;;;;;;;;;;;;;;;;;53013;1254;1057284;-80
2024/01/17 16:08:06;;;;;;;;;;;;;;;;;;53330;1251;1005206;-80